Time;durP1;ratioP1;P1;durP2;ratioP2;P2;SDS_P1;SDS_P2;PMS_P1;PMS_P2;Temp;Humidity;BMP_temperature;BMP_pressure;BME280_temperature;BME280_humidity;BME280_pressure;Samples;Min_cycle;Max_cycle;Signal;HPM_P1;HPM_P2
2022/05/02 00:04:07;;;;;;;1999.90;999.90;;;;;;;13.10;59.88;101672.13;15736775;28;20071;-59
2022/05/02 00:11:46;;;;;;;1999.90;999.90;;;;;;;13.10;59.71;101664.53;15678969;28;20056;-61
2022/05/02 00:19:19;;;;;;;1999.90;999.90;;;;;;;12.99;59.34;101664.03;15682817;28;20056;-61
2022/05/02 00:26:51;;;;;;;;;;;;;;;13.11;59.24;101657.78;15699549;28;20160;-61
2022/05/02 00:34:37;;;;;;;1999.90;999.90;;;;;;;13.11;59.52;101656.94;15723173;28;19943;-61
2022/05/02 00:42:09;;;;;;;1999.90;999.90;;;;;;;13.10;59.60;101650.53;15692029;28;20057;-61
2022/05/02 00:49:43;;;;;;;1999.90;999.90;;;;;;;13.19;58.73;101653.38;15689130;28;20128;-61
2022/05/02 00:57:17;;;;;;;1999.90;999.90;;;;;;;13.23;58.17;101640.34;15694495;28;20033;-60
2022/05/02 01:04:51;;;;;;;1999.90;999.90;;;;;;;13.22;58.24;101642.31;15716788;28;20039;-60
2022/05/02 01:12:24;;;;;;;;;;;;;;;13.23;58.13;101640.34;15712707;28;20127;-59
2022/05/02 01:20:12;;;;;;;1999.90;999.90;;;;;;;13.09;57.82;101640.47;15707399;28;19943;-60
2022/05/02 01:27:44;;;;;;;1999.90;999.90;;;;;;;12.90;59.34;101637.13;15692589;28;20048;-60
2022/05/02 01:35:18;;;;;;;1999.90;999.90;;;;;;;12.77;61.08;101627.72;15712364;28;20045;-59
2022/05/02 01:42:50;;;;;;;;;;;;;;;12.59;60.75;101617.63;15683022;28;20442;-58
2022/05/02 01:50:23;;;;;;;1999.90;999.90;;;;;;;12.30;61.16;101626.59;15715515;28;19936;-60
2022/05/02 01:57:56;;;;;;;;;;;;;;;12.28;61.61;101614.88;15701882;28;20045;-60
2022/05/02 02:05:50;;;;;;;1999.90;999.90;;;;;;;12.04;62.20;101613.28;15711332;28;20008;-58
2022/05/02 02:13:28;;;;;;;1999.90;999.90;;;;;;;11.98;62.34;101608.97;15676610;28;20386;-60
2022/05/02 02:21:02;;;;;;;1999.90;999.90;;;;;;;11.90;62.93;101615.38;15654852;28;20049;-60
2022/05/02 02:28:34;;;;;;;;;;;;;;;11.91;62.82;101611.41;15675847;28;20052;-60
2022/05/02 02:36:11;;;;;;;1999.90;999.90;;;;;;;11.57;63.79;101607.22;15708935;28;19920;-60
2022/05/02 02:43:46;;;;;;;1999.90;999.90;;;;;;;11.41;64.18;101599.53;15703824;28;20120;-59
2022/05/02 02:51:20;;;;;;;1999.90;999.90;;;;;;;11.33;64.69;101606.69;15691067;28;20175;-58
2022/05/02 02:58:52;;;;;;;;;;;;;;;11.24;64.91;101608.59;15716994;28;20057;-58
2022/05/02 03:06:32;;;;;;;1999.90;999.90;;;;;;;10.80;65.78;101590.63;15672798;28;19929;-61
2022/05/02 03:14:04;;;;;;;1999.90;999.90;;;;;;;10.72;66.23;101587.75;15688552;28;20040;-60
2022/05/02 03:21:38;;;;;;;1999.90;999.90;;;;;;;10.39;66.52;101585.91;15725748;28;20128;-60
2022/05/02 03:29:11;;;;;;;;;;;;;;;10.50;67.03;101589.31;15733549;28;20458;-60
2022/05/02 03:36:45;;;;;;;1999.90;999.90;;;;;;;10.33;67.30;101584.38;15705644;28;20007;-57
2022/05/02 03:44:20;;;;;;;1999.90;999.90;;;;;;;10.17;67.26;101577.41;15709335;28;20390;-57
2022/05/02 03:51:57;;;;;;;1999.90;999.90;;;;;;;10.07;66.88;101578.44;15699534;28;20106;-58
2022/05/02 03:59:29;;;;;;;1999.90;999.90;;;;;;;10.06;67.40;101562.03;15724315;28;20040;-57
2022/05/02 04:07:03;;;;;;;1999.90;999.90;;;;;;;9.88;68.14;101558.19;15694404;28;20184;-55
2022/05/02 04:14:35;;;;;;;1999.90;999.90;;;;;;;10.35;67.66;101576.53;15701391;28;20193;-58
2022/05/02 04:22:11;;;;;;;1999.90;999.90;;;;;;;10.55;67.25;101586.44;15693171;28;20505;-57
2022/05/02 04:29:43;;;;;;;;;;;;;;;10.65;67.79;101594.59;15718730;28;20444;-55
2022/05/02 04:37:17;;;;;;;1999.90;999.90;;;;;;;10.89;66.95;101587.91;15717990;28;19952;-59
2022/05/02 04:44:49;;;;;;;1999.90;999.90;;;;;;;10.97;65.63;101601.16;15700616;28;20386;-58
2022/05/02 04:52:23;;;;;;;1999.90;999.90;;;;;;;11.21;64.67;101612.84;15676110;28;20044;-59
2022/05/02 04:59:56;;;;;;;1999.90;999.90;;;;;;;11.31;63.97;101620.16;15699682;28;20076;-59
2022/05/02 05:07:29;;;;;;;1999.90;999.90;;;;;;;11.68;62.10;101618.97;15706432;28;20501;-59
2022/05/02 05:23:16;;;;;;;1999.90;999.90;;;;;;;12.82;59.77;101613.59;15675629;28;20044;-56
2022/05/02 05:30:55;;;;;;;1999.90;999.90;;;;;;;13.45;57.92;101611.34;15665968;28;20343;-58
2022/05/02 05:38:39;;;;;;;1999.90;999.90;;;;;;;14.02;56.42;101603.47;15725360;28;20714;-57
2022/05/02 05:46:37;;;;;;;1999.90;999.90;;;;;;;14.59;55.71;101597.47;15691030;28;20051;-59
2022/05/02 05:54:22;;;;;;;1999.90;999.90;;;;;;;15.15;53.31;101595.28;15713611;28;20036;-58
2022/05/02 06:02:05;;;;;;;1999.90;999.90;;;;;;;15.69;51.85;101595.31;15713406;28;20169;-57
2022/05/02 06:09:39;;;;;;;1999.90;999.90;;;;;;;14.97;51.83;101588.94;15732355;28;20056;-58
2022/05/02 06:25:05;;;;;;;1999.90;999.90;;;;;;;17.73;45.34;101605.56;15732053;28;20041;-60
2022/05/02 06:32:38;;;;;;;1999.90;999.90;;;;;;;18.55;40.41;101613.34;15731910;28;20039;-59
2022/05/02 06:40:26;;;;;;;1999.90;999.90;;;;;;;19.34;39.88;101628.16;15732277;28;20072;-61
2022/05/02 06:48:22;;;;;;;1999.90;999.90;;;;;;;19.24;41.79;101618.25;15726906;28;20132;-59
2022/05/02 06:56:07;;;;;;;1999.90;999.90;;;;;;;20.76;36.58;101615.94;15743612;28;20044;-59
2022/05/02 07:04:02;;;;;;;1999.90;999.90;;;;;;;21.19;36.89;101614.53;15725450;28;20052;-57
2022/05/02 07:11:46;;;;;;;1999.90;999.90;;;;;;;21.78;37.57;101612.91;15709997;28;20102;-56
2022/05/02 07:19:40;;;;;;;1999.90;999.90;;;;;;;21.56;37.30;101605.31;15726410;28;20044;-59
2022/05/02 07:27:27;;;;;;;1999.90;999.90;;;;;;;22.26;34.36;101598.78;15726157;28;20567;-57
2022/05/02 07:35:01;;;;;;;1999.90;999.90;;;;;;;22.80;33.50;101602.88;15743930;28;20074;-57
2022/05/02 07:42:37;;;;;;;1999.90;999.90;;;;;;;21.76;34.36;101615.28;15742661;28;20079;-59
2022/05/02 07:50:11;;;;;;;1999.90;999.90;;;;;;;22.45;33.15;101606.28;15725133;28;20056;-60
2022/05/02 07:57:48;;;;;;;1999.90;999.90;;;;;;;23.85;32.69;101612.41;15739369;28;20043;-60
2022/05/02 08:05:21;;;;;;;1999.90;999.90;;;;;;;24.10;30.48;101601.09;15722955;28;20546;-60
2022/05/02 08:12:56;;;;;;;1999.90;999.90;;;;;;;23.30;33.39;101600.38;15740216;28;20048;-60
2022/05/02 08:20:40;;;;;;;1999.90;999.90;;;;;;;22.77;34.10;101598.00;15740920;28;20044;-60
2022/05/02 08:28:24;;;;;;;1999.90;999.90;;;;;;;24.18;31.57;101599.06;15739739;28;20067;-60
2022/05/02 08:35:59;;;;;;;1999.90;999.90;;;;;;;24.26;32.31;101594.16;15721548;28;20177;-58
2022/05/02 08:44:02;;;;;;;1999.90;999.90;;;;;;;23.36;31.53;101589.44;15721274;28;20040;-60
2022/05/02 08:51:59;;;;;;;1999.90;999.90;;;;;;;24.42;31.55;101586.06;15738886;28;20048;-58
2022/05/02 09:00:04;;;;;;;1999.90;999.90;;;;;;;25.50;29.40;101576.03;15738600;28;20052;-59
2022/05/02 09:08:08;;;;;;;1999.90;999.90;;;;;;;24.49;30.73;101577.50;15733489;28;20393;-60
2022/05/02 09:16:31;;;;;;;1999.90;999.90;;;;;;;25.93;31.82;101573.78;15746538;28;20063;-61
2022/05/02 09:32:23;;;;;;;1999.90;999.90;;;;;;;24.86;30.75;101561.97;15854938;27;20444;-60
2022/05/02 09:40:08;;;;;;;1999.90;999.90;;;;;;;25.01;29.53;101557.81;15835862;28;20044;-61
2022/05/02 10:04:32;;;;;;;1999.90;999.90;;;;;;;27.90;26.35;101528.34;15849052;28;20118;-59
2022/05/02 10:12:25;;;;;;;1999.90;999.90;;;;;;;27.36;28.16;101530.31;15830998;28;20052;-58
2022/05/02 10:20:16;;;;;;;1999.90;999.90;;;;;;;27.88;26.31;101525.09;15847972;28;20062;-60
2022/05/02 10:28:03;;;;;;;1999.90;999.90;;;;;;;28.58;24.57;101510.00;15849018;28;20101;-57
2022/05/02 10:35:41;;;;;;;1999.90;999.90;;;;;;;28.49;24.82;101508.94;15793415;28;20052;-57
2022/05/02 10:43:26;;;;;;;1999.90;999.90;;;;;;;28.62;26.39;101499.25;15745709;28;20047;-62
2022/05/02 10:51:11;;;;;;;1999.90;999.90;;;;;;;29.47;25.32;101490.94;15746659;28;20048;-59
2022/05/02 10:58:48;;;;;;;1999.90;999.90;;;;;;;27.73;26.41;101474.16;15745684;28;20106;-60
2022/05/02 11:06:41;;;;;;;1999.90;999.90;;;;;;;26.41;30.12;101470.06;15743838;28;20045;-58
2022/05/02 11:14:31;;;;;;;1999.90;999.90;;;;;;;27.11;27.12;101456.19;15746521;28;20496;-61
2022/05/02 11:22:23;;;;;;;1999.90;999.90;;;;;;;29.08;24.83;101453.66;15740340;28;20489;-60
2022/05/02 11:30:02;;;;;;;1999.90;999.90;;;;;;;29.36;24.02;101440.69;15746776;28;20044;-59
2022/05/02 11:37:43;;;;;;;1999.90;999.90;;;;;;;28.85;27.46;101435.19;15767310;28;20515;-59
2022/05/02 11:45:17;;;;;;;1999.90;999.90;;;;;;;30.53;23.47;101426.22;15789295;28;20044;-59
2022/05/02 11:52:59;;;;;;;1999.90;999.90;;;;;;;29.64;24.31;101417.06;15738667;28;20048;-61
2022/05/02 12:00:37;;;;;;;1999.90;999.90;;;;;;;29.08;24.14;101410.56;15737886;28;20045;-60
2022/05/02 12:08:26;;;;;;;1999.90;999.90;;;;;;;26.83;27.61;101397.19;15781374;28;20044;-58
2022/05/02 12:16:10;;;;;;;1999.90;999.90;;;;;;;28.15;28.22;101393.09;15800532;28;20389;-60
2022/05/02 12:23:46;;;;;;;1999.90;999.90;;;;;;;29.48;26.32;101391.97;15798947;28;20050;-59
2022/05/02 12:31:26;;;;;;;1999.90;999.90;;;;;;;28.82;24.95;101380.72;15798488;28;20109;-60
2022/05/02 12:39:46;;;;;;;1999.90;999.90;;;;;;;32.11;22.92;101385.44;15763724;28;20067;-62
2022/05/02 12:47:23;;;;;;;1999.90;999.90;;;;;;;31.49;23.08;101367.78;15724381;28;20048;-61
2022/05/02 12:54:58;;;;;;;1999.90;999.90;;;;;;;32.71;22.09;101363.00;15699013;28;20037;-60
2022/05/02 13:02:33;;;;;;;1999.90;999.90;;;;;;;35.32;20.86;101369.00;15690850;28;20045;-59
2022/05/02 13:10:15;;;;;;;1999.90;999.90;;;;;;;34.41;19.86;101351.38;15695909;28;20111;-59
2022/05/02 13:17:49;;;;;;;;;;;;;;;37.28;17.97;101348.50;15707783;28;20041;-57
2022/05/02 13:25:59;;;;;;;1999.90;999.90;;;;;;;36.22;18.60;101334.94;15733207;28;19965;-58
2022/05/02 13:33:36;;;;;;;1999.90;999.90;;;;;;;28.20;24.51;101320.06;15672533;28;20057;-60
2022/05/02 13:41:24;;;;;;;1999.90;999.90;;;;;;;26.60;27.49;101300.59;15676885;28;20174;-57
2022/05/02 13:49:06;;;;;;;1999.90;999.90;;;;;;;26.75;29.81;101302.00;15703616;28;20048;-60
2022/05/02 13:56:45;;;;;;;1999.90;999.90;;;;;;;26.07;29.08;101284.06;15684058;28;20290;-59
2022/05/02 14:04:31;;;;;;;1999.90;999.90;;;;;;;25.89;29.16;101273.63;15704834;28;20079;-58
2022/05/02 14:12:08;;;;;;;1999.90;999.90;;;;;;;25.13;32.37;101271.88;15683243;28;20401;-60
2022/05/02 14:19:40;;;;;;;1999.90;999.90;;;;;;;25.10;31.93;101269.03;15695943;28;20404;-61
2022/05/02 14:27:14;;;;;;;1999.90;999.90;;;;;;;25.30;31.57;101255.81;15682861;28;20047;-61
2022/05/02 14:34:46;;;;;;;1999.90;999.90;;;;;;;25.18;32.56;101265.72;15727342;28;20044;-60
2022/05/02 14:42:21;;;;;;;1999.90;999.90;;;;;;;24.35;31.17;101260.91;15759923;28;20040;-59
2022/05/02 14:49:57;;;;;;;1999.90;999.90;;;;;;;23.52;33.04;101236.69;15703183;28;20152;-60
2022/05/02 14:57:32;;;;;;;1999.90;999.90;;;;;;;23.31;33.74;101244.03;15679844;28;20573;-62
2022/05/02 15:05:11;;;;;;;1999.90;999.90;;;;;;;23.85;33.11;101229.72;15739271;28;20051;-59
2022/05/02 15:13:02;;;;;;;1999.90;999.90;;;;;;;24.02;33.36;101213.78;15744672;28;20552;-57
2022/05/02 15:20:42;;;;;;;1999.90;999.90;;;;;;;23.68;34.52;101207.81;15714400;28;20075;-60
2022/05/02 15:36:43;;;;;;;1999.90;999.90;;;;;;;23.20;34.55;101200.53;15593580;28;20053;-56
2022/05/02 15:44:18;;;;;;;1999.90;999.90;;;;;;;22.94;34.81;101192.44;15572337;28;20042;-58
2022/05/02 15:51:59;;;;;;;1999.90;999.90;;;;;;;22.33;36.14;101185.81;15561434;28;20061;-57
2022/05/02 15:59:35;;;;;;;1999.90;999.90;;;;;;;22.56;34.36;101177.72;15528689;28;20072;-59
2022/05/02 16:14:55;;;;;;;1999.90;999.90;;;;;;;22.08;35.68;101177.19;15548249;28;20065;-58
2022/05/02 16:22:28;;;;;;;1999.90;999.90;;;;;;;21.80;36.79;101170.19;15535670;28;20141;-61
2022/05/02 16:30:04;;;;;;;;;;;;;;;21.50;37.14;101153.41;15522649;28;20132;-59
2022/05/02 16:37:37;;;;;;;1999.90;999.90;;;;;;;21.02;37.67;101161.97;15507202;28;20412;-58
2022/05/02 16:45:12;;;;;;;1999.90;999.90;;;;;;;20.96;37.76;101151.41;15543478;28;20145;-60
2022/05/02 16:52:45;;;;;;;1999.90;999.90;;;;;;;21.10;37.81;101154.31;15548420;28;20069;-58
2022/05/02 17:00:24;;;;;;;1999.90;999.90;;;;;;;20.67;38.30;101156.81;15547841;28;20458;-57
2022/05/02 17:07:57;;;;;;;1999.90;999.90;;;;;;;21.07;38.03;101146.63;15530281;28;20368;-58
2022/05/02 17:15:31;;;;;;;1999.90;999.90;;;;;;;20.56;39.02;101144.56;15576114;28;20092;-61
2022/05/02 17:23:04;;;;;;;1999.90;999.90;;;;;;;20.68;37.67;101147.09;15548028;28;20057;-59
2022/05/02 17:30:39;;;;;;;1999.90;999.90;;;;;;;20.48;38.84;101148.53;15539802;28;20107;-61
2022/05/02 17:38:12;;;;;;;1999.90;999.90;;;;;;;20.16;39.42;101140.50;15544555;28;20186;-59
2022/05/02 17:45:50;;;;;;;1999.90;999.90;;;;;;;20.38;40.08;101143.56;15547556;28;20068;-60
2022/05/02 17:53:22;;;;;;;1999.90;999.90;;;;;;;20.06;39.63;101149.69;15541639;28;20359;-56
2022/05/02 18:01:06;;;;;;;1999.90;999.90;;;;;;;20.02;40.13;101153.69;15560323;28;20069;-63
2022/05/02 18:08:41;;;;;;;1999.90;999.90;;;;;;;19.45;41.05;101159.41;15526906;28;20103;-60
2022/05/02 18:16:18;;;;;;;1999.90;999.90;;;;;;;19.54;41.81;101168.44;15588140;28;20052;-61
2022/05/02 18:23:52;;;;;;;1999.90;999.90;;;;;;;19.31;42.09;101168.50;15558801;28;20452;-59
2022/05/02 18:31:32;;;;;;;1999.90;999.90;;;;;;;19.06;43.61;101163.66;15557922;28;20475;-58
2022/05/02 18:39:07;;;;;;;1999.90;999.90;;;;;;;18.83;44.20;101173.00;15540261;28;20107;-60
2022/05/02 18:54:34;;;;;;;1999.90;999.90;;;;;;;18.22;45.53;101184.38;15557505;28;20469;-59
2022/05/02 19:02:09;;;;;;;1999.90;999.90;;;;;;;17.91;46.30;101191.00;15567224;28;20052;-57
2022/05/02 19:09:43;;;;;;;1999.90;999.90;;;;;;;17.59;47.35;101193.91;15551649;28;20066;-58
2022/05/02 19:17:21;;;;;;;1999.90;999.90;;;;;;;17.34;48.26;101199.00;15554945;28;20041;-58
2022/05/02 19:25:09;;;;;;;1999.90;999.90;;;;;;;17.11;48.59;101190.41;15545342;28;20049;-57
2022/05/02 19:32:49;;;;;;;1999.90;999.90;;;;;;;16.82;49.28;101183.25;15548408;28;20577;-58
2022/05/02 19:40:26;;;;;;;1999.90;999.90;;;;;;;16.59;50.63;101204.75;15532692;28;20060;-59
2022/05/02 19:48:06;;;;;;;1999.90;999.90;;;;;;;16.32;51.37;101195.16;15546710;28;20042;-61
2022/05/02 19:55:39;;;;;;;1999.90;999.90;;;;;;;16.00;51.91;101197.91;15548833;28;20121;-61
2022/05/02 20:03:12;;;;;;;1999.90;999.90;;;;;;;15.76;52.46;101196.00;15547266;28;20034;-58
2022/05/02 20:10:45;;;;;;;1999.90;999.90;;;;;;;15.48;52.95;101187.50;15543640;28;20149;-62
2022/05/02 20:18:19;;;;;;;1999.90;999.90;;;;;;;15.34;53.71;101192.69;15516266;28;20144;-60
2022/05/02 20:25:51;;;;;;;1999.90;999.90;;;;;;;15.12;55.23;101188.38;15522328;28;20046;-61
2022/05/02 20:41:33;;;;;;;1999.90;999.90;;;;;;;14.85;56.01;101184.28;15534488;28;20034;-62
2022/05/02 20:49:09;;;;;;;1999.90;999.90;;;;;;;14.67;56.63;101180.84;15541501;28;20046;-61
2022/05/02 20:56:41;;;;;;;1999.90;999.90;;;;;;;14.51;56.45;101181.91;15550664;28;20081;-64
2022/05/02 21:04:15;;;;;;;1999.90;999.90;;;;;;;14.28;57.66;101178.69;15562042;28;20151;-61
2022/05/02 21:11:50;;;;;;;;;;;;;;;14.32;58.30;101179.59;15558805;28;20046;-59
2022/05/02 21:19:36;;;;;;;1999.90;999.90;;;;;;;14.11;59.00;101182.47;15554235;28;19945;-58
2022/05/02 21:27:24;;;;;;;1999.90;999.90;;;;;;;13.90;59.36;101168.50;15564484;22;20110;-59
2022/05/02 21:35:03;;;;;;;1999.90;999.90;;;;;;;13.60;59.96;101173.38;15661334;28;20548;-57
2022/05/02 21:42:38;;;;;;;1999.90;999.90;;;;;;;13.49;59.85;101169.34;15621294;28;20029;-59
2022/05/02 21:50:12;;;;;;;1999.90;999.90;;;;;;;13.28;60.60;101167.34;15605190;28;20037;-59
2022/05/02 21:57:45;;;;;;;1999.90;999.90;;;;;;;13.03;61.78;101170.28;15572721;28;20065;-59
2022/05/02 22:05:19;;;;;;;1999.90;999.90;;;;;;;13.02;61.44;101175.06;15610064;28;20045;-57
2022/05/02 22:12:52;;;;;;;1999.90;999.90;;;;;;;12.84;61.99;101173.53;15585596;28;20049;-59
2022/05/02 22:20:26;;;;;;;1999.90;999.90;;;;;;;12.52;61.40;101166.59;15615292;28;20394;-60
2022/05/02 22:27:58;;;;;;;;;;;;;;;12.51;62.82;101164.94;15590020;28;20076;-58
2022/05/02 22:35:32;;;;;;;1999.90;999.90;;;;;;;12.42;62.81;101171.41;15583872;28;20329;-56
2022/05/02 22:43:04;;;;;;;;;;;;;;;12.36;63.28;101164.31;15593503;28;20045;-59
2022/05/02 22:50:38;;;;;;;1999.90;999.90;;;;;;;12.08;63.92;101163.91;15600186;28;20063;-57
2022/05/02 22:58:12;;;;;;;1999.90;999.90;;;;;;;11.98;64.14;101158.66;15610711;28;20503;-59
2022/05/02 23:05:52;;;;;;;1999.90;999.90;;;;;;;12.03;64.06;101161.28;15610330;28;20061;-59
2022/05/02 23:13:25;;;;;;;1999.90;999.90;;;;;;;11.84;63.91;101158.84;15613639;28;20045;-60
2022/05/02 23:21:00;;;;;;;1999.90;999.90;;;;;;;11.64;64.68;101165.09;15585207;28;20045;-57
2022/05/02 23:28:33;;;;;;;1999.90;999.90;;;;;;;11.34;65.52;101169.66;15620595;28;20076;-56
2022/05/02 23:36:14;;;;;;;1999.90;999.90;;;;;;;11.50;64.92;101162.47;15582183;28;20072;-56
2022/05/02 23:43:55;;;;;;;1999.90;999.90;;;;;;;11.67;64.71;101158.84;15591774;28;20041;-59
2022/05/02 23:51:40;;;;;;;1999.90;999.90;;;;;;;11.84;64.69;101158.84;15601802;28;20046;-58
2022/05/02 23:59:28;;;;;;;1999.90;999.90;;;;;;;11.98;65.07;101157.84;15588404;28;20068;-58
